Time;durP1;ratioP1;P1;durP2;ratioP2;P2;SDS_P1;SDS_P2;PMS_P1;PMS_P2;Temp;Humidity;BMP_temperature;BMP_pressure;BME280_temperature;BME280_humidity;BME280_pressure;Samples;Min_cycle;Max_cycle;Signal;HPM_P1;HPM_P2
2021/12/22 00:00:27;;;;;;;37.65;18.83;;;2.80;99.90;;;;;;4943208;28;20266;-92
2021/12/22 00:02:54;;;;;;;40.47;20.23;;;2.80;99.90;;;;;;4976323;28;20023;-94
2021/12/22 00:05:26;;;;;;;35.33;19.42;;;2.80;99.90;;;;;;4958656;28;20031;-94
2021/12/22 00:07:54;;;;;;;33.72;19.77;;;2.80;99.90;;;;;;4958916;28;20031;-94
2021/12/22 00:10:23;;;;;;;35.08;16.67;;;2.80;99.90;;;;;;4943270;28;20037;-93
2021/12/22 00:12:51;;;;;;;36.63;19.10;;;2.80;99.90;;;;;;4958720;28;20034;-93
2021/12/22 00:15:20;;;;;;;48.63;23.02;;;2.80;99.90;;;;;;4959016;28;20514;-94
2021/12/22 00:17:55;;;;;;;37.10;19.55;;;2.80;99.90;;;;;;4958869;28;20034;-93
2021/12/22 00:20:22;;;;;;;46.85;21.80;;;2.80;99.90;;;;;;4959236;28;20019;-92
2021/12/22 00:23:06;;;;;;;43.85;21.88;;;2.80;99.90;;;;;;4976318;28;20041;-93
2021/12/22 00:25:33;;;;;;;38.33;21.98;;;2.80;99.90;;;;;;4947022;28;20046;-94
2021/12/22 00:27:59;;;;;;;43.35;22.35;;;2.80;99.90;;;;;;4942782;28;20027;-93
2021/12/22 00:30:31;;;;;;;44.67;23.08;;;2.80;99.90;;;;;;4961265;28;20022;-94
2021/12/22 00:33:03;;;;;;;40.92;22.55;;;2.80;99.90;;;;;;4966638;28;20022;-93
2021/12/22 00:35:39;;;;;;;36.13;21.30;;;2.80;99.90;;;;;;4958557;28;20440;-92
2021/12/22 00:38:12;;;;;;;44.55;22.13;;;2.80;99.90;;;;;;4957513;28;20037;-92
2021/12/22 00:40:39;;;;;;;39.67;21.10;;;2.80;99.90;;;;;;4957616;28;20053;-92
2021/12/22 00:43:07;;;;;;;47.42;23.67;;;2.70;99.90;;;;;;4958375;28;20046;-91
2021/12/22 00:45:41;;;;;;;43.38;23.35;;;2.80;99.90;;;;;;4974301;28;20031;-92
2021/12/22 00:48:14;;;;;;;44.78;22.55;;;2.70;99.90;;;;;;4955283;28;20137;-93
2021/12/22 00:50:44;;;;;;;37.55;19.80;;;2.70;99.90;;;;;;4954594;28;20098;-92
2021/12/22 00:53:15;;;;;;;38.15;19.40;;;2.70;99.90;;;;;;4974564;28;20584;-92
2021/12/22 00:55:44;;;;;;;43.38;22.80;;;2.70;99.90;;;;;;4957970;28;20070;-93
2021/12/22 00:58:13;;;;;;;40.72;22.65;;;2.80;99.90;;;;;;4957647;28;20310;-93
2021/12/22 01:00:48;;;;;;;45.47;22.02;;;2.70;99.90;;;;;;4960088;28;20130;-94
2021/12/22 01:03:17;;;;;;;44.10;22.27;;;2.70;99.90;;;;;;4962343;28;20046;-93
2021/12/22 01:05:48;;;;;;;39.92;21.40;;;2.70;99.90;;;;;;4977927;28;20117;-93
2021/12/22 01:08:22;;;;;;;44.03;22.08;;;2.70;99.90;;;;;;4962127;28;20027;-93
2021/12/22 01:10:54;;;;;;;34.58;20.88;;;2.70;99.90;;;;;;4961827;28;20097;-93
2021/12/22 01:13:32;;;;;;;37.85;21.15;;;2.70;99.90;;;;;;4961867;28;20368;-92
2021/12/22 01:16:08;;;;;;;39.30;21.90;;;2.70;99.90;;;;;;4961945;28;20039;-93
2021/12/22 01:18:40;;;;;;;41.55;23.45;;;2.80;99.90;;;;;;4944343;28;20563;-93
2021/12/22 01:24:10;;;;;;;38.92;21.95;;;2.70;99.90;;;;;;4987911;28;20031;-94
2021/12/22 01:26:41;;;;;;;37.03;21.52;;;2.70;99.90;;;;;;4972179;28;20043;-93
2021/12/22 01:29:32;;;;;;;35.85;20.65;;;2.80;99.90;;;;;;4969807;28;20047;-94
2021/12/22 01:32:02;;;;;;;39.78;20.83;;;2.70;99.90;;;;;;4984530;28;20035;-93
2021/12/22 01:34:35;;;;;;;41.53;22.15;;;2.80;99.90;;;;;;4979699;28;20034;-92
2021/12/22 01:37:06;;;;;;;34.17;17.95;;;2.70;99.90;;;;;;4960003;28;20097;-93
2021/12/22 01:39:40;;;;;;;39.90;20.20;;;2.70;99.90;;;;;;4963307;28;20030;-93
2021/12/22 01:42:27;;;;;;;37.05;20.65;;;2.70;99.90;;;;;;4979200;28;20062;-92
2021/12/22 01:50:43;;;;;;;41.83;21.58;;;2.70;99.90;;;;;;4979068;28;20049;-93
2021/12/22 01:53:28;;;;;;;41.25;22.02;;;2.70;99.90;;;;;;4961387;28;20180;-92
2021/12/22 01:56:14;;;;;;;47.33;24.08;;;2.70;99.90;;;;;;4977088;28;20057;-95
2021/12/22 01:58:45;;;;;;;46.05;24.35;;;2.70;99.90;;;;;;4977326;28;20027;-91
2021/12/22 02:01:11;;;;;;;44.05;24.42;;;2.70;99.90;;;;;;4975761;28;20485;-92
2021/12/22 02:03:41;;;;;;;44.80;23.30;;;2.70;99.90;;;;;;4960658;28;20400;-94
2021/12/22 02:06:08;;;;;;;46.60;23.08;;;2.70;99.90;;;;;;4945588;28;20031;-93
2021/12/22 02:08:45;;;;;;;51.15;24.55;;;2.70;99.90;;;;;;4961088;28;20027;-92
2021/12/22 02:11:20;;;;;;;45.45;23.20;;;2.70;99.90;;;;;;4960092;28;20035;-93
2021/12/22 02:13:52;;;;;;;49.00;22.17;;;2.70;99.90;;;;;;4961577;28;20038;-93
2021/12/22 02:16:26;;;;;;;45.75;23.90;;;2.70;99.90;;;;;;4946160;28;20088;-92
2021/12/22 02:18:56;;;;;;;41.63;22.52;;;2.70;99.90;;;;;;4980396;28;20030;-94
2021/12/22 02:21:34;;;;;;;46.30;23.73;;;2.70;99.90;;;;;;4965235;28;20118;-92
2021/12/22 02:24:01;;;;;;;46.47;23.75;;;2.70;99.90;;;;;;4980797;28;20054;-93
2021/12/22 02:26:45;;;;;;;55.20;24.98;;;2.70;99.90;;;;;;4964800;28;20034;-93
2021/12/22 02:29:22;;;;;;;47.17;21.70;;;2.70;99.90;;;;;;4960597;28;20019;-94
2021/12/22 02:32:05;;;;;;;48.33;22.13;;;2.70;99.90;;;;;;4959972;28;20030;-93
2021/12/22 02:34:43;;;;;;;48.05;22.73;;;2.70;99.90;;;;;;4977461;28;20078;-93
2021/12/22 02:37:17;;;;;;;52.40;23.67;;;2.70;99.90;;;;;;4976190;28;20023;-93
2021/12/22 02:39:59;;;;;;;47.05;21.90;;;2.70;99.90;;;;;;4960591;28;20034;-94
2021/12/22 02:42:33;;;;;;;49.50;23.92;;;2.60;99.90;;;;;;4959889;28;20451;-93
2021/12/22 02:45:16;;;;;;;54.38;25.63;;;2.60;99.90;;;;;;4976423;28;20021;-94
2021/12/22 02:47:45;;;;;;;52.08;24.02;;;2.60;99.90;;;;;;4954937;28;20042;-94
2021/12/22 02:50:13;;;;;;;48.80;23.88;;;2.50;99.90;;;;;;4995259;28;20069;-94
2021/12/22 02:55:43;;;;;;;53.30;24.75;;;2.40;99.90;;;;;;4996241;28;20089;-93
2021/12/22 02:58:21;;;;;;;52.03;23.23;;;2.30;99.90;;;;;;4996635;28;20031;-95
2021/12/22 03:06:37;;;;;;;58.92;26.20;;;2.20;99.90;;;;;;4996569;28;20038;-94
2021/12/22 03:09:20;;;;;;;57.70;24.92;;;2.20;99.90;;;;;;4976117;28;20495;-93
2021/12/22 03:11:47;;;;;;;41.25;22.55;;;2.10;99.90;;;;;;4989612;28;20026;-94
2021/12/22 03:14:15;;;;;;;43.75;22.58;;;2.10;99.90;;;;;;4968089;28;20070;-93
2021/12/22 03:16:47;;;;;;;52.20;26.58;;;2.10;99.90;;;;;;4962439;28;20046;-94
2021/12/22 03:19:23;;;;;;;59.05;28.75;;;2.10;99.90;;;;;;4978985;28;20088;-95
2021/12/22 03:22:00;;;;;;;56.97;25.02;;;2.10;99.90;;;;;;4995212;28;20471;-93
2021/12/22 03:24:31;;;;;;;49.35;23.83;;;2.00;99.90;;;;;;4994253;28;20514;-93
2021/12/22 03:27:02;;;;;;;58.63;25.25;;;2.00;99.90;;;;;;4995450;28;20034;-94
2021/12/22 03:29:31;;;;;;;60.08;26.25;;;1.90;99.90;;;;;;4995095;28;20036;-94
2021/12/22 03:32:00;;;;;;;47.25;23.08;;;1.90;99.90;;;;;;4962731;28;20026;-94
2021/12/22 03:34:35;;;;;;;71.57;29.45;;;1.80;99.90;;;;;;4979091;28;20026;-94
2021/12/22 03:37:24;;;;;;;62.10;27.80;;;1.80;99.90;;;;;;4979174;28;20109;-94
2021/12/22 03:39:58;;;;;;;65.53;29.00;;;1.70;99.90;;;;;;4975069;28;20014;-93
2021/12/22 03:42:24;;;;;;;67.05;29.10;;;1.70;99.90;;;;;;4974689;28;20054;-94
2021/12/22 03:44:58;;;;;;;63.63;27.27;;;1.70;99.90;;;;;;4990181;28;20042;-94
2021/12/22 03:47:26;;;;;;;66.90;27.90;;;1.60;99.90;;;;;;4994704;28;20038;-93
2021/12/22 03:49:51;;;;;;;71.00;28.55;;;1.60;99.90;;;;;;4978390;28;20125;-94
2021/12/22 03:52:17;;;;;;;65.47;30.17;;;1.60;99.90;;;;;;4994999;28;20480;-96
2021/12/22 03:54:43;;;;;;;55.17;26.25;;;1.60;99.90;;;;;;4978252;28;20027;-93
2021/12/22 03:57:08;;;;;;;57.33;26.20;;;1.60;99.90;;;;;;4979312;28;20512;-94
2021/12/22 03:59:34;;;;;;;65.10;28.80;;;1.60;99.90;;;;;;4998278;28;20030;-93
2021/12/22 04:02:01;;;;;;;58.10;25.85;;;1.60;99.90;;;;;;4983954;28;20031;-94
2021/12/22 04:04:27;;;;;;;64.93;28.88;;;1.50;99.90;;;;;;4989755;28;20030;-91
2021/12/22 04:06:53;;;;;;;61.40;26.23;;;1.50;99.90;;;;;;4986751;28;20018;-92
2021/12/22 04:09:26;;;;;;;72.90;30.30;;;1.50;99.90;;;;;;4979552;28;20030;-93
2021/12/22 04:11:52;;;;;;;63.53;28.10;;;1.50;99.90;;;;;;4978400;28;20027;-93
2021/12/22 04:14:18;;;;;;;61.63;28.35;;;1.50;99.90;;;;;;4978113;28;20031;-93
2021/12/22 04:16:43;;;;;;;71.25;29.13;;;1.50;99.90;;;;;;4978558;28;20053;-92
2021/12/22 04:19:09;;;;;;;68.97;28.65;;;1.50;99.90;;;;;;4977605;28;20072;-92
2021/12/22 04:21:35;;;;;;;56.05;26.10;;;1.50;99.90;;;;;;4977076;28;20092;-92
2021/12/22 04:24:01;;;;;;;52.70;25.00;;;1.40;99.90;;;;;;4977194;28;20022;-91
2021/12/22 04:26:30;;;;;;;60.53;27.73;;;1.40;99.90;;;;;;4977434;28;20037;-94
2021/12/22 04:28:56;;;;;;;66.53;27.95;;;1.40;99.90;;;;;;4977756;28;20407;-93
2021/12/22 04:31:22;;;;;;;58.80;26.55;;;1.30;99.90;;;;;;4977339;28;20026;-94
2021/12/22 04:33:48;;;;;;;56.72;25.88;;;1.30;99.90;;;;;;4977416;28;20034;-93
2021/12/22 04:36:13;;;;;;;59.22;25.38;;;1.30;99.90;;;;;;4977037;28;20030;-94
2021/12/22 04:38:39;;;;;;;70.07;27.95;;;1.30;99.90;;;;;;4978697;28;20476;-95
2021/12/22 04:41:05;;;;;;;60.20;25.35;;;1.30;99.90;;;;;;4978154;28;20046;-95
2021/12/22 04:43:31;;;;;;;62.72;25.88;;;1.30;99.90;;;;;;4978461;28;20049;-92
2021/12/22 04:45:57;;;;;;;62.88;26.60;;;1.20;99.90;;;;;;4979995;28;20022;-94
2021/12/22 04:48:24;;;;;;;57.90;25.25;;;1.20;99.90;;;;;;4991285;28;20153;-93
2021/12/22 04:50:52;;;;;;;59.05;25.92;;;1.20;99.90;;;;;;4976041;28;20069;-94
2021/12/22 04:53:24;;;;;;;57.92;25.52;;;1.20;99.90;;;;;;5004450;28;20045;-92
2021/12/22 04:55:50;;;;;;;64.32;27.65;;;1.20;99.90;;;;;;4988409;28;20113;-93
2021/12/22 04:58:17;;;;;;;63.25;28.88;;;1.20;99.90;;;;;;4983200;28;20066;-94
2021/12/22 05:00:43;;;;;;;58.15;25.70;;;1.20;99.90;;;;;;4987480;28;20026;-93
2021/12/22 05:03:09;;;;;;;60.60;26.25;;;1.10;99.90;;;;;;4980007;28;20031;-93
2021/12/22 05:05:35;;;;;;;55.33;23.77;;;1.10;99.90;;;;;;4977951;28;20022;-95
2021/12/22 05:08:01;;;;;;;54.92;23.55;;;1.00;99.90;;;;;;4977871;28;20022;-93
2021/12/22 05:10:28;;;;;;;52.85;23.45;;;1.00;99.90;;;;;;4977258;28;20058;-92
2021/12/22 05:12:54;;;;;;;56.33;23.50;;;0.90;99.90;;;;;;4977350;28;20049;-94
2021/12/22 05:15:23;;;;;;;55.85;22.90;;;0.90;99.90;;;;;;4977936;28;20023;-93
2021/12/22 05:20:20;;;;;;;54.35;23.20;;;0.80;99.90;;;;;;4994528;28;20027;-92
2021/12/22 05:22:46;;;;;;;51.30;22.00;;;0.80;99.90;;;;;;4977300;28;20096;-93
2021/12/22 05:25:12;;;;;;;55.33;23.83;;;0.80;99.90;;;;;;4977095;28;20033;-92
2021/12/22 05:27:38;;;;;;;62.22;24.73;;;0.80;99.90;;;;;;4977758;28;20027;-92
2021/12/22 05:30:06;;;;;;;54.53;22.58;;;0.80;99.90;;;;;;4977528;28;20038;-91
2021/12/22 05:32:33;;;;;;;61.53;23.33;;;0.70;99.90;;;;;;4977398;28;20100;-93
2021/12/22 05:34:59;;;;;;;54.22;22.08;;;0.70;99.90;;;;;;4977065;28;20026;-94
2021/12/22 05:37:25;;;;;;;58.47;23.30;;;0.60;99.90;;;;;;4977496;28;20030;-93
2021/12/22 05:39:51;;;;;;;62.50;24.92;;;0.60;99.90;;;;;;4977450;28;20037;-93
2021/12/22 05:42:19;;;;;;;54.42;22.98;;;0.60;99.90;;;;;;4977394;28;20047;-93
2021/12/22 05:44:45;;;;;;;54.30;23.20;;;0.60;99.90;;;;;;4977392;28;20030;-92
2021/12/22 05:47:10;;;;;;;56.25;22.88;;;0.50;99.90;;;;;;4979600;28;20030;-92
2021/12/22 05:49:36;;;;;;;53.15;22.35;;;0.50;99.90;;;;;;4980959;28;20034;-92
2021/12/22 05:52:03;;;;;;;51.53;20.65;;;0.40;99.90;;;;;;4981507;28;20023;-93
2021/12/22 05:54:29;;;;;;;60.53;22.08;;;0.40;99.90;;;;;;4989552;28;20023;-92
2021/12/22 05:56:54;;;;;;;55.58;22.30;;;0.30;99.90;;;;;;4995066;28;20425;-93
2021/12/22 05:59:20;;;;;;;58.47;26.48;;;0.30;99.90;;;;;;4982057;28;20483;-91
2021/12/22 06:01:46;;;;;;;55.97;22.38;;;0.20;99.90;;;;;;4980655;28;20081;-93
2021/12/22 06:04:11;;;;;;;63.38;22.20;;;0.20;99.90;;;;;;4980169;28;20038;-92
2021/12/22 06:06:37;;;;;;;73.15;22.55;;;0.10;99.90;;;;;;4980595;28;20039;-94
2021/12/22 06:09:04;;;;;;;60.90;23.80;;;0.10;99.90;;;;;;4980695;28;20058;-91
2021/12/22 06:11:30;;;;;;;65.88;25.08;;;0.10;99.90;;;;;;4980644;28;20031;-89
2021/12/22 06:13:57;;;;;;;57.75;22.65;;;0.00;99.90;;;;;;4980472;28;20037;-93
2021/12/22 06:16:23;;;;;;;59.00;22.77;;;0.00;99.90;;;;;;4980620;28;20069;-90
2021/12/22 06:18:55;;;;;;;61.00;22.23;;;0.00;99.90;;;;;;4980259;28;20026;-91
2021/12/22 06:21:21;;;;;;;53.08;21.48;;;0.00;99.90;;;;;;4979932;28;20026;-91
2021/12/22 06:23:47;;;;;;;70.57;27.75;;;0.00;99.90;;;;;;4980343;28;20035;-91
2021/12/22 06:26:13;;;;;;;69.72;26.58;;;0.00;99.90;;;;;;4980080;28;20053;-92
2021/12/22 06:28:38;;;;;;;71.53;25.67;;;0.00;99.90;;;;;;4979988;28;20145;-92
2021/12/22 06:31:05;;;;;;;66.95;26.60;;;0.00;99.90;;;;;;4979501;28;20205;-91
2021/12/22 06:33:30;;;;;;;67.18;27.00;;;0.00;99.90;;;;;;4979805;28;20409;-91
2021/12/22 06:35:56;;;;;;;63.13;27.15;;;0.00;99.90;;;;;;4979750;28;20026;-93
2021/12/22 06:38:22;;;;;;;55.15;22.92;;;-0.10;99.90;;;;;;4978239;28;20032;-94
2021/12/22 06:40:49;;;;;;;71.78;28.90;;;-0.10;99.90;;;;;;4979900;28;20049;-91
2021/12/22 06:43:16;;;;;;;67.80;28.02;;;-0.10;99.90;;;;;;4979729;28;20079;-91
2021/12/22 06:45:42;;;;;;;72.75;28.33;;;-0.10;99.90;;;;;;4979572;28;20030;-91
2021/12/22 06:48:08;;;;;;;64.57;23.98;;;-0.20;99.90;;;;;;4979657;28;20030;-92
2021/12/22 06:50:34;;;;;;;68.65;26.27;;;-0.20;99.90;;;;;;4980027;28;20031;-90
2021/12/22 06:53:00;;;;;;;72.57;27.85;;;-0.20;99.90;;;;;;4979522;28;20030;-94
2021/12/22 06:55:27;;;;;;;71.53;28.02;;;-0.20;99.90;;;;;;4979761;28;20038;-93
2021/12/22 06:58:08;;;;;;;68.78;25.33;;;-0.20;99.90;;;;;;4979026;28;20041;-93
2021/12/22 07:00:36;;;;;;;68.65;26.20;;;-0.20;99.90;;;;;;4979468;28;20034;-93
2021/12/22 07:03:04;;;;;;;72.30;25.88;;;-0.20;99.90;;;;;;4979492;28;20030;-91
2021/12/22 07:05:30;;;;;;;61.00;22.80;;;-0.20;99.90;;;;;;4979743;28;20030;-92
2021/12/22 07:07:55;;;;;;;70.30;24.42;;;-0.20;99.90;;;;;;4979649;28;20046;-93
2021/12/22 07:10:21;;;;;;;68.13;26.13;;;-0.10;99.90;;;;;;4979242;28;20030;-93
2021/12/22 07:12:48;;;;;;;78.60;28.90;;;0.00;99.90;;;;;;4979381;28;20126;-93
2021/12/22 07:15:16;;;;;;;66.18;27.30;;;0.00;99.90;;;;;;4977720;28;20487;-93
2021/12/22 07:17:43;;;;;;;70.53;26.52;;;0.10;99.90;;;;;;4982966;28;20063;-93
2021/12/22 07:20:10;;;;;;;62.10;24.73;;;0.10;99.90;;;;;;4977312;28;20030;-91
2021/12/22 07:22:36;;;;;;;78.25;29.75;;;0.10;99.90;;;;;;4976567;28;20042;-91
2021/12/22 07:25:04;;;;;;;64.30;25.70;;;0.10;99.90;;;;;;4976492;28;20092;-90
2021/12/22 07:27:30;;;;;;;79.88;28.77;;;0.10;99.90;;;;;;4976755;28;20025;-90
2021/12/22 07:29:55;;;;;;;85.70;31.33;;;0.10;99.90;;;;;;4976723;28;20030;-92
2021/12/22 07:32:21;;;;;;;75.63;29.30;;;0.10;99.90;;;;;;4977383;28;20072;-90
2021/12/22 07:35:09;;;;;;;79.55;30.73;;;0.10;99.90;;;;;;4977328;28;20161;-90
2021/12/22 07:37:47;;;;;;;80.03;29.00;;;0.10;99.90;;;;;;4977947;28;20026;-90
2021/12/22 07:40:16;;;;;;;76.97;29.17;;;0.10;99.90;;;;;;4980358;28;20026;-91
2021/12/22 07:42:44;;;;;;;75.07;28.63;;;0.10;99.90;;;;;;4985750;28;20066;-92
2021/12/22 07:45:11;;;;;;;84.97;28.65;;;0.20;99.90;;;;;;4979953;28;20582;-93
2021/12/22 07:47:37;;;;;;;87.32;32.92;;;0.20;99.90;;;;;;4977085;28;20046;-91
2021/12/22 07:50:05;;;;;;;77.28;28.15;;;0.20;99.90;;;;;;4976654;28;20105;-92
2021/12/22 07:52:31;;;;;;;67.05;27.45;;;0.20;99.90;;;;;;4976862;28;20024;-92
2021/12/22 07:54:58;;;;;;;74.20;26.70;;;0.20;99.90;;;;;;4976917;28;20026;-90
2021/12/22 07:57:23;;;;;;;71.13;26.80;;;0.20;99.90;;;;;;4976695;28;20022;-92
2021/12/22 07:59:49;;;;;;;64.05;25.83;;;0.20;99.90;;;;;;4976802;28;20033;-93
2021/12/22 08:02:15;;;;;;;64.82;24.88;;;0.30;99.90;;;;;;4976909;28;20084;-91
2021/12/22 08:04:41;;;;;;;59.10;22.00;;;0.40;99.90;;;;;;4982294;28;20034;-92
2021/12/22 08:07:07;;;;;;;65.13;24.13;;;0.40;99.90;;;;;;4985381;28;20060;-91
2021/12/22 08:09:34;;;;;;;55.28;20.65;;;0.50;99.90;;;;;;4984181;28;20459;-92
2021/12/22 08:12:04;;;;;;;56.67;20.30;;;0.60;99.90;;;;;;4998415;28;20045;-92
2021/12/22 08:14:32;;;;;;;59.67;23.20;;;0.60;99.90;;;;;;4979431;28;20018;-92
2021/12/22 08:16:57;;;;;;;55.33;18.33;;;0.70;99.90;;;;;;4977303;28;20033;-92
2021/12/22 08:19:23;;;;;;;58.20;22.73;;;0.70;99.90;;;;;;4975415;28;20734;-92
2021/12/22 08:21:49;;;;;;;66.05;23.85;;;0.70;99.90;;;;;;4982122;28;20049;-93
2021/12/22 08:24:14;;;;;;;69.78;25.50;;;0.70;99.90;;;;;;4983259;28;20041;-93
2021/12/22 08:26:40;;;;;;;64.82;25.67;;;0.70;99.90;;;;;;4980195;28;20026;-92
2021/12/22 08:29:06;;;;;;;63.38;23.80;;;0.60;99.90;;;;;;4983009;28;20034;-92
2021/12/22 08:31:33;;;;;;;55.25;22.05;;;0.60;99.90;;;;;;4981460;28;20027;-93
2021/12/22 08:34:00;;;;;;;55.35;21.42;;;0.60;99.90;;;;;;4985484;28;20053;-92
2021/12/22 08:39:14;;;;;;;72.95;26.60;;;0.60;99.90;;;;;;4990284;28;20061;-92
2021/12/22 08:41:40;;;;;;;68.13;27.45;;;0.60;99.90;;;;;;4988841;28;20047;-91
2021/12/22 08:44:11;;;;;;;57.30;23.67;;;0.50;99.90;;;;;;4975339;28;20034;-92
2021/12/22 08:46:40;;;;;;;54.35;22.23;;;0.50;99.90;;;;;;4972467;28;20047;-93
2021/12/22 08:49:06;;;;;;;73.32;26.20;;;0.50;99.90;;;;;;4979810;28;20492;-92
2021/12/22 08:51:33;;;;;;;77.47;27.20;;;0.50;99.90;;;;;;4983252;28;20030;-93
2021/12/22 08:54:00;;;;;;;66.32;25.63;;;0.60;99.90;;;;;;4982552;28;20049;-93
2021/12/22 08:56:27;;;;;;;65.38;25.55;;;0.70;99.90;;;;;;4983905;28;20054;-92
2021/12/22 08:58:54;;;;;;;64.05;25.38;;;0.80;99.90;;;;;;4983582;28;20396;-92
2021/12/22 09:01:20;;;;;;;64.53;23.77;;;0.90;99.90;;;;;;4983020;28;20034;-92
2021/12/22 09:03:46;;;;;;;52.53;19.60;;;0.90;99.90;;;;;;4981582;28;20030;-93
2021/12/22 09:06:12;;;;;;;53.25;19.50;;;1.00;99.90;;;;;;4982880;28;20084;-93
2021/12/22 09:08:38;;;;;;;48.30;19.17;;;1.10;99.90;;;;;;4982015;28;20103;-93
2021/12/22 09:11:03;;;;;;;45.65;17.13;;;1.10;99.90;;;;;;4990683;28;20027;-93
2021/12/22 09:13:29;;;;;;;46.13;17.38;;;1.10;99.90;;;;;;4984695;28;20066;-92
2021/12/22 09:15:55;;;;;;;41.78;16.30;;;1.20;99.90;;;;;;4981533;28;20025;-92
2021/12/22 09:18:21;;;;;;;47.85;18.42;;;1.20;99.90;;;;;;4985207;28;20026;-93
2021/12/22 09:20:46;;;;;;;45.78;18.30;;;1.20;99.90;;;;;;4986052;28;20460;-93
2021/12/22 09:23:12;;;;;;;54.03;20.35;;;1.20;99.90;;;;;;5007222;28;20023;-92
2021/12/22 09:25:38;;;;;;;44.67;17.42;;;1.20;99.90;;;;;;4998492;28;20018;-92
2021/12/22 09:28:06;;;;;;;50.33;19.77;;;1.30;99.90;;;;;;4991821;28;20034;-91
2021/12/22 09:30:36;;;;;;;44.25;17.85;;;1.30;99.90;;;;;;4988867;28;20022;-92
2021/12/22 09:33:14;;;;;;;43.95;18.58;;;1.30;99.90;;;;;;4992246;28;20034;-93
2021/12/22 09:35:41;;;;;;;41.67;16.58;;;1.30;99.90;;;;;;4985125;28;20026;-92
2021/12/22 09:38:07;;;;;;;49.33;17.92;;;1.40;99.90;;;;;;4981877;28;20503;-91
2021/12/22 09:40:34;;;;;;;45.70;18.17;;;1.40;99.90;;;;;;4978069;28;20014;-92
2021/12/22 09:43:00;;;;;;;45.88;16.27;;;1.40;99.90;;;;;;4994483;28;20447;-93
2021/12/22 09:45:27;;;;;;;41.85;15.98;;;1.50;99.90;;;;;;4990143;28;20085;-95
2021/12/22 09:50:45;;;;;;;39.80;15.68;;;1.50;99.90;;;;;;5013679;28;20136;-92
2021/12/22 09:53:12;;;;;;;43.30;15.57;;;1.50;99.90;;;;;;5013622;28;20033;-93
2021/12/22 09:55:38;;;;;;;37.75;16.38;;;1.60;99.90;;;;;;4999259;28;20044;-93
2021/12/22 09:58:05;;;;;;;45.45;16.27;;;1.60;99.90;;;;;;5000823;28;20030;-93
2021/12/22 10:00:34;;;;;;;44.58;16.13;;;1.60;99.90;;;;;;4999790;28;20403;-94
2021/12/22 10:03:00;;;;;;;40.47;15.65;;;1.60;99.90;;;;;;5000770;28;20022;-93
2021/12/22 10:05:25;;;;;;;45.47;16.17;;;1.70;99.90;;;;;;5015934;28;20032;-93
2021/12/22 10:08:08;;;;;;;38.38;15.50;;;1.70;99.90;;;;;;5015986;28;20157;-94
2021/12/22 10:10:38;;;;;;;36.05;14.90;;;1.70;99.90;;;;;;5000965;28;20026;-93
2021/12/22 10:13:11;;;;;;;38.65;15.00;;;1.70;99.90;;;;;;5016913;28;20030;-93
2021/12/22 10:15:37;;;;;;;41.03;15.38;;;1.70;99.90;;;;;;5015888;28;20049;-94
2021/12/22 10:18:10;;;;;;;40.38;14.77;;;1.70;99.90;;;;;;5016171;28;20518;-92
2021/12/22 10:20:36;;;;;;;40.80;16.63;;;1.80;99.90;;;;;;5015432;28;20034;-94
2021/12/22 10:23:17;;;;;;;45.85;15.70;;;1.80;99.90;;;;;;4998606;28;20030;-94
2021/12/22 10:25:43;;;;;;;46.53;16.33;;;1.80;99.90;;;;;;5012594;28;20093;-93
2021/12/22 10:28:18;;;;;;;49.25;18.90;;;1.80;99.90;;;;;;4991313;28;20049;-90
2021/12/22 10:30:45;;;;;;;42.15;16.40;;;1.80;99.90;;;;;;5001326;28;20022;-92
2021/12/22 10:33:25;;;;;;;36.55;15.27;;;1.80;99.90;;;;;;5010977;28;20699;-92
2021/12/22 10:35:53;;;;;;;43.10;16.60;;;1.80;99.90;;;;;;5005633;28;20056;-92
2021/12/22 10:38:22;;;;;;;47.47;16.17;;;1.80;99.90;;;;;;5004969;28;20033;-93
2021/12/22 10:40:50;;;;;;;41.65;14.48;;;1.90;99.90;;;;;;5004767;28;20037;-92
2021/12/22 10:43:25;;;;;;;39.60;14.73;;;1.90;99.90;;;;;;4978847;28;20054;-92
2021/12/22 10:45:56;;;;;;;38.45;15.85;;;1.90;99.90;;;;;;4993965;28;20476;-93
2021/12/22 10:51:46;;;;;;;38.50;14.65;;;2.00;99.90;;;;;;4996221;28;20153;-92
2021/12/22 10:54:14;;;;;;;41.35;17.23;;;2.00;99.90;;;;;;4975370;28;20053;-92
2021/12/22 10:56:46;;;;;;;39.53;15.27;;;2.10;99.90;;;;;;4981499;28;20089;-91
2021/12/22 10:59:16;;;;;;;32.55;13.82;;;2.10;99.90;;;;;;4991781;28;20023;-92
2021/12/22 11:02:10;;;;;;;37.28;14.65;;;2.10;99.90;;;;;;4976845;28;20034;-92
2021/12/22 11:04:43;;;;;;;34.60;14.75;;;2.20;99.90;;;;;;4987906;28;20038;-91
2021/12/22 11:07:22;;;;;;;37.85;13.73;;;2.20;99.90;;;;;;4978158;28;20026;-94
2021/12/22 11:09:49;;;;;;;33.83;13.10;;;2.20;99.90;;;;;;4982159;28;20396;-94
2021/12/22 11:12:17;;;;;;;27.52;12.38;;;2.30;99.90;;;;;;4980776;28;20038;-92
2021/12/22 11:14:47;;;;;;;38.75;14.07;;;2.30;99.90;;;;;;4981625;28;20041;-93
2021/12/22 11:17:15;;;;;;;37.97;13.20;;;2.30;99.90;;;;;;4985706;28;20034;-94
2021/12/22 11:20:00;;;;;;;38.45;13.48;;;2.30;99.90;;;;;;4986099;28;20265;-94
2021/12/22 11:22:52;;;;;;;33.22;11.90;;;2.30;99.90;;;;;;4981964;28;20042;-92
2021/12/22 11:25:19;;;;;;;28.23;11.88;;;2.30;99.90;;;;;;4985168;28;20026;-93
2021/12/22 11:27:47;;;;;;;37.60;13.20;;;2.40;99.90;;;;;;4984549;28;20047;-94
2021/12/22 11:30:12;;;;;;;28.27;12.07;;;2.40;99.90;;;;;;4991483;28;20113;-95
2021/12/22 11:32:39;;;;;;;28.38;12.20;;;2.40;99.90;;;;;;5006549;28;20367;-93
2021/12/22 11:35:10;;;;;;;33.22;12.85;;;2.40;99.90;;;;;;4984713;28;20022;-93
2021/12/22 11:37:35;;;;;;;;;;;2.50;99.90;;;;;;4981250;28;20027;-94
2021/12/22 11:40:03;;;;;;;33.67;11.30;;;2.40;99.90;;;;;;4979496;28;19918;-94
2021/12/22 11:42:37;;;;;;;28.90;10.93;;;2.50;99.90;;;;;;4976546;28;20109;-93
2021/12/22 11:45:18;;;;;;;31.88;12.00;;;2.50;99.90;;;;;;4978951;28;20019;-93
2021/12/22 11:47:50;;;;;;;27.60;11.88;;;2.50;99.90;;;;;;4979233;28;20125;-93
2021/12/22 11:50:31;;;;;;;29.67;12.27;;;2.50;99.90;;;;;;4979028;28;20026;-94
2021/12/22 11:53:08;;;;;;;28.60;11.60;;;2.50;99.90;;;;;;4978462;28;20023;-94
2021/12/22 11:55:50;;;;;;;27.80;11.00;;;2.60;99.90;;;;;;4985306;28;20062;-93
2021/12/22 11:58:34;;;;;;;28.13;11.73;;;2.60;99.90;;;;;;4978394;28;20089;-93
2021/12/22 12:01:08;;;;;;;29.27;11.80;;;2.70;99.90;;;;;;4976272;28;20026;-93
2021/12/22 12:03:46;;;;;;;28.40;11.00;;;2.70;99.90;;;;;;4976349;28;20030;-94
2021/12/22 12:06:21;;;;;;;30.92;12.15;;;2.70;99.90;;;;;;4976937;28;20117;-93
2021/12/22 12:09:10;;;;;;;31.27;13.13;;;2.80;99.90;;;;;;4977754;28;20038;-93
2021/12/22 12:11:45;;;;;;;29.33;12.75;;;2.80;99.90;;;;;;4975332;28;20018;-93
2021/12/22 12:23:35;;;;;;;29.63;11.10;;;2.80;99.90;;;;;;4994089;28;20037;-93
2021/12/22 12:26:06;;;;;;;30.33;11.13;;;2.80;99.90;;;;;;4958031;28;20053;-94
2021/12/22 12:28:46;;;;;;;26.67;10.37;;;2.80;99.90;;;;;;4960505;28;20476;-93
2021/12/22 12:31:14;;;;;;;28.92;10.63;;;2.80;99.90;;;;;;4958267;28;20289;-94
2021/12/22 12:33:45;;;;;;;29.60;12.02;;;2.80;99.90;;;;;;4979377;28;20065;-94
2021/12/22 12:36:17;;;;;;;26.60;10.40;;;2.80;99.90;;;;;;4979369;28;20178;-94
2021/12/22 12:39:00;;;;;;;30.08;11.55;;;2.80;99.90;;;;;;4963844;28;20050;-94
2021/12/22 12:41:34;;;;;;;23.95;10.00;;;2.80;99.90;;;;;;4986571;28;20077;-94
2021/12/22 12:44:06;;;;;;;25.75;10.85;;;2.80;99.90;;;;;;4991345;28;20260;-94
2021/12/22 12:46:40;;;;;;;23.42;9.95;;;2.90;99.90;;;;;;4987299;28;20053;-95
2021/12/22 12:49:12;;;;;;;26.92;10.48;;;2.90;99.90;;;;;;4980929;28;20120;-95
2021/12/22 12:51:49;;;;;;;22.95;10.20;;;2.90;99.90;;;;;;4984437;28;20022;-94
2021/12/22 12:54:20;;;;;;;27.00;10.73;;;2.90;99.90;;;;;;4987469;28;20034;-94
2021/12/22 12:56:54;;;;;;;21.40;9.40;;;3.00;99.90;;;;;;4982917;28;20498;-93
2021/12/22 12:59:48;;;;;;;26.15;10.05;;;3.00;99.90;;;;;;4983878;28;20038;-93
2021/12/22 13:02:40;;;;;;;21.77;9.40;;;3.00;99.90;;;;;;4968805;28;20054;-93
2021/12/22 13:05:18;;;;;;;24.67;10.55;;;3.00;99.90;;;;;;4983508;28;20046;-94
2021/12/22 13:07:47;;;;;;;29.70;10.45;;;3.00;99.90;;;;;;4967763;28;20049;-94
2021/12/22 13:10:24;;;;;;;24.65;9.68;;;3.00;99.90;;;;;;4978708;28;20035;-94
2021/12/22 13:15:47;;;;;;;26.88;9.75;;;3.10;99.90;;;;;;4988486;28;20092;-93
2021/12/22 13:18:20;;;;;;;21.65;10.80;;;3.10;99.90;;;;;;4981489;28;20030;-95
2021/12/22 13:20:46;;;;;;;25.45;9.93;;;3.10;99.90;;;;;;4983029;28;20030;-94
2021/12/22 13:23:20;;;;;;;28.90;9.65;;;3.00;99.90;;;;;;4987019;28;20117;-94
2021/12/22 13:25:52;;;;;;;32.20;11.77;;;3.00;99.90;;;;;;4985160;28;20595;-95
2021/12/22 13:28:27;;;;;;;27.40;9.88;;;3.00;99.90;;;;;;4985311;28;20034;-94
2021/12/22 13:31:11;;;;;;;26.98;10.23;;;3.00;99.90;;;;;;4984185;28;20097;-95
2021/12/22 13:33:51;;;;;;;23.80;9.43;;;3.00;99.90;;;;;;4982336;28;20038;-94